createdAt,value
2022-12-26T00:01:26.419Z,98699.60
2022-12-26T00:06:30.346Z,98696.05
2022-12-26T00:11:32.113Z,98704.27
2022-12-26T00:16:42.164Z,98687.87
2022-12-26T00:21:43.939Z,98684.86
2022-12-26T00:26:45.696Z,98688.92
2022-12-26T00:31:47.579Z,98687.02
2022-12-26T00:36:49.510Z,98687.81
2022-12-26T00:41:51.311Z,98684.88
2022-12-26T00:46:53.087Z,98676.95
2022-12-26T00:51:54.982Z,98684.06
2022-12-26T00:56:56.685Z,98685.73
2022-12-26T01:01:58.543Z,98671.07
2022-12-26T01:07:00.685Z,98672.97
2022-12-26T01:12:02.420Z,98665.58
2022-12-26T01:17:04.111Z,98670.38
2022-12-26T01:22:05.861Z,98669.10
2022-12-26T01:27:07.625Z,98673.14
2022-12-26T01:32:09.455Z,98685.42
2022-12-26T01:37:13.782Z,98681.45
2022-12-26T01:42:21.574Z,98672.14
2022-12-26T01:47:25.616Z,98667.58
2022-12-26T01:52:38.727Z,98659.84
2022-12-26T01:57:47.761Z,98648.48
2022-12-26T02:03:09.174Z,98636.73
2022-12-26T02:08:23.111Z,98610.91
2022-12-26T02:13:25.303Z,98577.95
2022-12-26T02:18:26.999Z,98598.08
2022-12-26T02:24:16.730Z,98597.71
2022-12-26T02:29:31.624Z,98595.29
2022-12-26T02:35:17.138Z,98593.29
2022-12-26T02:40:32.113Z,98581.85
2022-12-26T02:46:20.505Z,98590.21
2022-12-26T02:52:15.710Z,98587.91
2022-12-26T02:57:40.927Z,98588.89
2022-12-26T03:03:17.760Z,98574.90
2022-12-26T03:08:47.140Z,98566.39
2022-12-26T03:13:50.905Z,98549.02
2022-12-26T03:19:00.605Z,98559.13
2022-12-26T03:24:02.763Z,98564.21
2022-12-26T03:29:23.258Z,98564.19
2022-12-26T03:34:25.737Z,98574.22
2022-12-26T03:39:53.902Z,98572.79
2022-12-26T03:45:27.908Z,98552.83
2022-12-26T03:51:03.148Z,98542.85
2022-12-26T03:56:36.237Z,98537.02
2022-12-26T04:01:59.071Z,98530.80
2022-12-26T04:07:30.112Z,98538.09
2022-12-26T04:12:55.180Z,98527.18
2022-12-26T04:18:22.534Z,98508.42
2022-12-26T04:24:04.158Z,98522.25
2022-12-26T04:29:24.660Z,98542.05
2022-12-26T04:34:52.218Z,98549.08
2022-12-26T04:40:15.281Z,98557.11
2022-12-26T04:45:17.973Z,98544.64
2022-12-26T04:50:19.686Z,98537.77
2022-12-26T04:55:21.508Z,98541.77
2022-12-26T05:00:25.437Z,98527.91
2022-12-26T05:05:45.949Z,98524.28
2022-12-26T05:10:47.844Z,98529.83
2022-12-26T05:16:08.583Z,98543.19
2022-12-26T05:21:36.856Z,98540.79
2022-12-26T05:26:57.271Z,98538.38
2022-12-26T05:31:59.170Z,98531.56
2022-12-26T05:37:02.583Z,98538.58
2022-12-26T05:42:04.472Z,98535.58
2022-12-26T05:47:06.194Z,98536.33
2022-12-26T05:52:08.134Z,98542.06
2022-12-26T05:57:09.923Z,98537.00
2022-12-26T06:02:11.779Z,98535.59
2022-12-26T06:07:13.949Z,98528.16
2022-12-26T06:12:15.655Z,98527.71
2022-12-26T06:17:17.430Z,98534.64
2022-12-26T06:22:19.167Z,98548.95
2022-12-26T06:27:21.024Z,98562.52
2022-12-26T06:32:22.861Z,98551.75
2022-12-26T06:37:24.627Z,98539.76
2022-12-26T06:42:26.327Z,98546.95
2022-12-26T06:47:29.046Z,98555.95
2022-12-26T06:52:30.728Z,98567.98
2022-12-26T06:57:32.471Z,98564.83
2022-12-26T07:02:34.310Z,98560.79
2022-12-26T07:07:36.185Z,98548.73
2022-12-26T07:12:37.980Z,98549.13
2022-12-26T07:17:39.791Z,98574.86
2022-12-26T07:22:41.527Z,98603.65
2022-12-26T07:27:43.296Z,98603.10
2022-12-26T07:32:45.033Z,98577.31
2022-12-26T07:37:46.789Z,98572.83
2022-12-26T07:42:48.516Z,98581.79
2022-12-26T07:47:54.347Z,98585.96
2022-12-26T07:52:56.316Z,98581.58
2022-12-26T07:57:58.034Z,98588.48
2022-12-26T08:03:06.930Z,98589.56
2022-12-26T08:08:09.371Z,98604.28
2022-12-26T08:13:11.135Z,98603.90
2022-12-26T08:18:12.858Z,98603.05
2022-12-26T08:23:14.683Z,98602.47
2022-12-26T08:28:16.763Z,98597.83
2022-12-26T08:33:18.700Z,98610.56
2022-12-26T08:38:20.411Z,98618.52
2022-12-26T08:44:16.440Z,98617.25
2022-12-26T08:48:46.959Z,98615.73
2022-12-26T08:53:50.141Z,98610.52
2022-12-26T08:58:51.966Z,98596.62
2022-12-26T09:03:55.974Z,98593.08
2022-12-26T09:08:59.416Z,98591.54
2022-12-26T09:14:03.047Z,98590.44
2022-12-26T09:19:06.354Z,98595.94
2022-12-26T09:24:12.365Z,98611.67
2022-12-26T09:29:14.737Z,98614.44
2022-12-26T09:34:17.137Z,98629.04
2022-12-26T09:39:18.830Z,98635.23
2022-12-26T09:44:28.067Z,98643.37
2022-12-26T09:49:34.681Z,98628.88
2022-12-26T09:54:43.704Z,98624.82
2022-12-26T09:59:58.119Z,98610.16
2022-12-26T10:04:59.961Z,98599.08
2022-12-26T10:10:10.957Z,98598.42
2022-12-26T10:15:27.557Z,98595.00
2022-12-26T10:20:47.779Z,98592.86
2022-12-26T10:25:55.777Z,98601.17
2022-12-26T10:31:02.694Z,98601.48
2022-12-26T10:36:04.806Z,98589.52
2022-12-26T10:41:14.520Z,98576.66
2022-12-26T10:46:30.209Z,98573.85
2022-12-26T10:51:32.883Z,98582.93
2022-12-26T10:56:34.623Z,98586.14
2022-12-26T11:01:39.412Z,98577.04
2022-12-26T11:06:43.399Z,98568.26
2022-12-26T11:11:51.601Z,98566.63
2022-12-26T11:16:54.435Z,98560.09
2022-12-26T11:22:20.595Z,98559.26
2022-12-26T11:27:24.185Z,98548.02
2022-12-26T11:32:27.914Z,98539.18
2022-12-26T11:37:34.325Z,98538.36
2022-12-26T11:42:36.488Z,98533.06
2022-12-26T11:47:45.538Z,98552.73
2022-12-26T11:52:56.446Z,98552.08
2022-12-26T11:58:10.531Z,98536.75
2022-12-26T12:03:16.980Z,98521.07
2022-12-26T12:08:21.704Z,98525.32
2022-12-26T12:13:58.753Z,98532.00
2022-12-26T12:19:03.533Z,98543.48
2022-12-26T12:24:40.620Z,98558.58
2022-12-26T12:29:51.252Z,98542.83
2022-12-26T12:35:21.857Z,98547.07
2022-12-26T12:40:32.658Z,98545.58
2022-12-26T12:45:45.966Z,98538.42
2022-12-26T12:51:24.132Z,98538.19
2022-12-26T12:56:57.020Z,98536.09
2022-12-26T13:02:09.638Z,98544.58
2022-12-26T13:07:27.188Z,98545.30
2022-12-26T13:12:48.180Z,98533.92
2022-12-26T13:17:57.967Z,98527.67
2022-12-26T13:23:24.174Z,98519.42
2022-12-26T13:28:32.496Z,98515.08
2022-12-26T13:33:35.138Z,98519.92
2022-12-26T13:38:55.960Z,98528.90
2022-12-26T13:44:24.598Z,98528.10
2022-12-26T13:49:39.018Z,98535.31
2022-12-26T13:54:46.837Z,98524.50
2022-12-26T13:59:56.718Z,98517.52
2022-12-26T14:05:21.363Z,98512.43
2022-12-26T14:10:26.203Z,98511.36
2022-12-26T14:15:56.419Z,98514.23
2022-12-26T14:21:13.459Z,98513.79
2022-12-26T14:26:50.388Z,98512.70
2022-12-26T14:32:30.099Z,98520.73
2022-12-26T14:37:44.619Z,98533.00
2022-12-26T14:43:16.694Z,98524.79
2022-12-26T14:48:18.391Z,98518.55
2022-12-26T14:53:29.490Z,98510.58
2022-12-26T14:58:31.237Z,98509.94
2022-12-26T15:04:09.652Z,98509.89
2022-12-26T15:09:45.759Z,98520.05
2022-12-26T15:15:22.035Z,98511.27
2022-12-26T15:20:57.896Z,98506.20
2022-12-26T15:26:33.083Z,98518.27
2022-12-26T15:31:44.468Z,98505.71
2022-12-26T15:36:55.434Z,98495.27
2022-12-26T15:42:13.179Z,98497.41
2022-12-26T15:47:44.671Z,98495.55
2022-12-26T15:52:58.243Z,98496.10
2022-12-26T15:58:15.259Z,98490.98
2022-12-26T16:03:45.489Z,98486.04
2022-12-26T16:08:58.387Z,98484.66
2022-12-26T16:14:03.699Z,98502.42
2022-12-26T16:19:38.097Z,98513.14
2022-12-26T16:24:42.538Z,98481.63
2022-12-26T16:30:02.097Z,98488.56
2022-12-26T16:35:16.417Z,98527.77
2022-12-26T16:40:24.149Z,98511.77
2022-12-26T16:45:27.619Z,98499.00
2022-12-26T16:50:32.761Z,98474.84
2022-12-26T16:55:42.119Z,98465.91
2022-12-26T17:00:51.718Z,98461.11
2022-12-26T17:05:53.586Z,98464.62
2022-12-26T17:10:55.473Z,98462.84
2022-12-26T17:15:59.880Z,98465.90
2022-12-26T17:21:20.230Z,98493.60
2022-12-26T17:26:24.368Z,98506.73
2022-12-26T17:31:33.010Z,98518.48
2022-12-26T17:41:59.601Z,98518.77
2022-12-26T17:47:06.768Z,98497.95
2022-12-26T17:52:14.103Z,98512.52
2022-12-26T17:57:22.700Z,98523.80
2022-12-26T18:02:25.144Z,98523.39
2022-12-26T18:07:31.428Z,98513.50
2022-12-26T18:12:33.618Z,98512.50
2022-12-26T18:17:35.440Z,98500.73
2022-12-26T18:22:37.258Z,98515.66
2022-12-26T18:27:39.020Z,98512.80
2022-12-26T18:32:41.157Z,98509.41
2022-12-26T18:37:48.029Z,98512.36
2022-12-26T18:42:50.240Z,98511.66
2022-12-26T18:47:52.164Z,98512.85
2022-12-26T18:52:55.380Z,98509.45
2022-12-26T18:57:57.961Z,98507.92
2022-12-26T19:02:59.641Z,98525.65
2022-12-26T19:08:02.478Z,98527.49
2022-12-26T19:13:05.950Z,98524.92
2022-12-26T19:18:08.337Z,98532.50
2022-12-26T19:23:10.625Z,98541.81
2022-12-26T19:28:12.880Z,98537.16
2022-12-26T19:33:14.540Z,98539.57
2022-12-26T19:38:16.247Z,98537.81
2022-12-26T19:43:18.006Z,98543.68
2022-12-26T19:48:19.791Z,98549.76
2022-12-26T19:53:21.781Z,98559.40
2022-12-26T19:58:24.181Z,98558.34
2022-12-26T20:03:25.946Z,98568.25
2022-12-26T20:08:27.708Z,98579.05
2022-12-26T20:13:29.376Z,98592.74
2022-12-26T20:18:31.584Z,98586.23
2022-12-26T20:23:35.780Z,98584.54
2022-12-26T20:28:37.883Z,98590.58
2022-12-26T20:33:41.909Z,98587.23
2022-12-26T20:38:46.018Z,98584.96
2022-12-26T20:43:49.248Z,98584.58
2022-12-26T20:48:52.836Z,98586.39
2022-12-26T20:53:54.561Z,98585.62
2022-12-26T20:58:59.671Z,98584.35
2022-12-26T21:04:01.834Z,98599.38
2022-12-26T21:09:06.380Z,98598.27
2022-12-26T21:14:12.845Z,98605.84
2022-12-26T21:19:17.172Z,98613.09
2022-12-26T21:24:22.256Z,98607.77
2022-12-26T21:29:30.904Z,98597.50
2022-12-26T21:34:33.875Z,98604.04
2022-12-26T21:39:36.824Z,98597.48
2022-12-26T21:44:38.725Z,98586.20
2022-12-26T21:49:41.017Z,98575.91
2022-12-26T21:55:01.650Z,98575.05
2022-12-26T22:00:04.822Z,98579.79
2022-12-26T22:05:07.366Z,98570.04
2022-12-26T22:10:29.753Z,98564.27
2022-12-26T22:15:51.033Z,98563.64
2022-12-26T22:20:52.811Z,98558.48
2022-12-26T22:25:55.836Z,98561.77
2022-12-26T22:30:59.349Z,98557.73
2022-12-26T22:36:08.824Z,98562.30
2022-12-26T22:41:10.643Z,98551.05
2022-12-26T22:46:13.545Z,98541.88
2022-12-26T22:51:21.482Z,98538.44
2022-12-26T22:56:23.327Z,98538.10
2022-12-26T23:01:25.202Z,98534.34
2022-12-26T23:06:35.996Z,98542.38
2022-12-26T23:11:38.132Z,98540.36
2022-12-26T23:16:56.334Z,98522.70
2022-12-26T23:22:00.370Z,98511.98
2022-12-26T23:27:25.589Z,98509.85
2022-12-26T23:32:27.613Z,98501.85
2022-12-26T23:37:29.333Z,98502.86
2022-12-26T23:42:31.179Z,98501.89
2022-12-26T23:47:36.050Z,98500.83
2022-12-26T23:52:37.724Z,98496.19
2022-12-26T23:57:39.563Z,98484.83
